NEXUS17 ENBO-ENBN
Flight info
| Callsign | NEXUS17 |
|---|---|
| Flight time | 0h 59m |
| Altitude | 3000 |
| Route | PISUX DCT STO DCT PEPIB |
| Aircraft | H145/L-SDFGRY/C |
Departure
| Time | 2026-05-08 22:16 |
|---|---|
| Airport | Bodø Airport (ENBO) |
Arrival
| Time | 2026-05-08 23:15 |
|---|---|
| Airport | Brønnøysund Airport, Brønnøy (ENBN) |
| Time | Latitude | Longitude | Altitude | Speed | Heading |
|---|---|---|---|---|---|
| 2026-05-08 22:14 | 67.27107 | 14.39745 | 46 ft | 0 kts | 343° |
| 2026-05-08 22:15 | 67.27108 | 14.39736 | 51 ft | 2 kts | 359° |
| 2026-05-08 22:16 | 67.27124 | 14.39577 | 240 ft | 47 kts | 235° |
| 2026-05-08 22:16 | 67.27106 | 14.38314 | 555 ft | 72 kts | 251° |
| 2026-05-08 22:16 | 67.26939 | 14.36820 | 785 ft | 102 kts | 238° |
| 2026-05-08 22:16 | 67.26514 | 14.35364 | 973 ft | 103 kts | 206° |
| 2026-05-08 22:17 | 67.25919 | 14.34446 | 1180 ft | 95 kts | 202° |
| 2026-05-08 22:17 | 67.25321 | 14.33577 | 1571 ft | 98 kts | 205° |
| 2026-05-08 22:17 | 67.24749 | 14.32741 | 1960 ft | 93 kts | 205° |
| 2026-05-08 22:17 | 67.24201 | 14.31936 | 2353 ft | 89 kts | 206° |
| 2026-05-08 22:18 | 67.23671 | 14.31155 | 2706 ft | 87 kts | 206° |
| 2026-05-08 22:18 | 67.23132 | 14.30369 | 2872 ft | 91 kts | 206° |
| 2026-05-08 22:18 | 67.22570 | 14.29553 | 2951 ft | 94 kts | 207° |
| 2026-05-08 22:18 | 67.22000 | 14.28726 | 2974 ft | 93 kts | 207° |
| 2026-05-08 22:19 | 67.21433 | 14.27899 | 2985 ft | 94 kts | 207° |
| 2026-05-08 22:19 | 67.20869 | 14.27071 | 2994 ft | 93 kts | 208° |
| 2026-05-08 22:19 | 67.20277 | 14.26186 | 2984 ft | 107 kts | 208° |
| 2026-05-08 22:19 | 67.19596 | 14.25150 | 2994 ft | 119 kts | 208° |
| 2026-05-08 22:20 | 67.18864 | 14.24037 | 2997 ft | 125 kts | 208° |
| 2026-05-08 22:20 | 67.18114 | 14.22902 | 2999 ft | 126 kts | 209° |
| 2026-05-08 22:20 | 67.17354 | 14.21751 | 2998 ft | 127 kts | 209° |
| 2026-05-08 22:20 | 67.16590 | 14.20595 | 3001 ft | 127 kts | 209° |
| 2026-05-08 22:21 | 67.15826 | 14.19440 | 2997 ft | 127 kts | 209° |
| 2026-05-08 22:21 | 67.15062 | 14.18284 | 2997 ft | 128 kts | 209° |
| 2026-05-08 22:21 | 67.14296 | 14.17125 | 2998 ft | 128 kts | 209° |
| 2026-05-08 22:21 | 67.13529 | 14.15967 | 2994 ft | 128 kts | 209° |
| 2026-05-08 22:22 | 67.12765 | 14.14810 | 2993 ft | 127 kts | 209° |
| 2026-05-08 22:22 | 67.11998 | 14.13653 | 2993 ft | 128 kts | 210° |
| 2026-05-08 22:22 | 67.11227 | 14.12490 | 2995 ft | 129 kts | 209° |
| 2026-05-08 22:22 | 67.10454 | 14.11316 | 2998 ft | 129 kts | 211° |
| 2026-05-08 22:23 | 67.09682 | 14.10138 | 3131 ft | 126 kts | 210° |
| 2026-05-08 22:23 | 67.08937 | 14.09019 | 3180 ft | 124 kts | 208° |
| 2026-05-08 22:23 | 67.08176 | 14.07879 | 3193 ft | 129 kts | 208° |
| 2026-05-08 22:23 | 67.07399 | 14.06724 | 3074 ft | 128 kts | 208° |
| 2026-05-08 22:24 | 67.06627 | 14.05570 | 3025 ft | 129 kts | 209° |
| 2026-05-08 22:24 | 67.05864 | 14.04423 | 3007 ft | 129 kts | 208° |
| 2026-05-08 22:24 | 67.05089 | 14.03260 | 2992 ft | 129 kts | 209° |
| 2026-05-08 22:24 | 67.04314 | 14.02093 | 2989 ft | 129 kts | 209° |
| 2026-05-08 22:25 | 67.03537 | 14.00926 | 2985 ft | 130 kts | 209° |
| 2026-05-08 22:25 | 67.02759 | 13.99756 | 2986 ft | 130 kts | 209° |
| 2026-05-08 22:25 | 67.01983 | 13.98592 | 2980 ft | 129 kts | 209° |
| 2026-05-08 22:25 | 67.01205 | 13.97425 | 2979 ft | 130 kts | 209° |
| 2026-05-08 22:26 | 67.00424 | 13.96256 | 2982 ft | 130 kts | 209° |
| 2026-05-08 22:26 | 66.99647 | 13.95093 | 2977 ft | 129 kts | 209° |
| 2026-05-08 22:26 | 66.98873 | 13.93934 | 2976 ft | 129 kts | 210° |
| 2026-05-08 22:26 | 66.98180 | 13.92901 | 2979 ft | 128 kts | 209° |
| 2026-05-08 22:27 | 66.97406 | 13.91746 | 3014 ft | 129 kts | 209° |
| 2026-05-08 22:27 | 66.96645 | 13.90597 | 3271 ft | 125 kts | 210° |
| 2026-05-08 22:27 | 66.95920 | 13.89509 | 3391 ft | 117 kts | 209° |
| 2026-05-08 22:27 | 66.95219 | 13.88479 | 3432 ft | 118 kts | 208° |
| 2026-05-08 22:28 | 66.94483 | 13.87382 | 3444 ft | 126 kts | 209° |
| 2026-05-08 22:28 | 66.93732 | 13.86261 | 3463 ft | 127 kts | 209° |
| 2026-05-08 22:28 | 66.92955 | 13.85102 | 3475 ft | 128 kts | 208° |
| 2026-05-08 22:28 | 66.92203 | 13.83989 | 3462 ft | 126 kts | 209° |
| 2026-05-08 22:29 | 66.91440 | 13.82895 | 3190 ft | 126 kts | 207° |
| 2026-05-08 22:29 | 66.90676 | 13.81788 | 3055 ft | 127 kts | 208° |
| 2026-05-08 22:29 | 66.89908 | 13.80640 | 3010 ft | 128 kts | 210° |
| 2026-05-08 22:29 | 66.89159 | 13.79500 | 3271 ft | 123 kts | 211° |
| 2026-05-08 22:30 | 66.88451 | 13.78416 | 3652 ft | 113 kts | 210° |
| 2026-05-08 22:30 | 66.87824 | 13.77485 | 3839 ft | 97 kts | 209° |
| 2026-05-08 22:30 | 66.87258 | 13.76659 | 3919 ft | 93 kts | 209° |
| 2026-05-08 22:30 | 66.86673 | 13.75803 | 3932 ft | 103 kts | 209° |
| 2026-05-08 22:31 | 66.86004 | 13.74805 | 3944 ft | 119 kts | 209° |
| 2026-05-08 22:31 | 66.85257 | 13.73687 | 3956 ft | 130 kts | 208° |
| 2026-05-08 22:31 | 66.84477 | 13.72531 | 3966 ft | 129 kts | 208° |
| 2026-05-08 22:31 | 66.83699 | 13.71382 | 3969 ft | 130 kts | 209° |
| 2026-05-08 22:32 | 66.83181 | 13.70619 | 3966 ft | 130 kts | 209° |
| 2026-05-08 22:32 | 66.82402 | 13.69469 | 3966 ft | 129 kts | 209° |
| 2026-05-08 22:32 | 66.81629 | 13.68327 | 3966 ft | 129 kts | 210° |
| 2026-05-08 22:32 | 66.80848 | 13.67173 | 3963 ft | 131 kts | 210° |
| 2026-05-08 22:33 | 66.80064 | 13.66003 | 3976 ft | 128 kts | 209° |
| 2026-05-08 22:33 | 66.79302 | 13.64888 | 3987 ft | 127 kts | 210° |
| 2026-05-08 22:33 | 66.78527 | 13.63747 | 3977 ft | 130 kts | 210° |
| 2026-05-08 22:33 | 66.77742 | 13.62601 | 3977 ft | 129 kts | 209° |
| 2026-05-08 22:34 | 66.76966 | 13.61469 | 3967 ft | 129 kts | 210° |
| 2026-05-08 22:34 | 66.76189 | 13.60323 | 3966 ft | 130 kts | 210° |
| 2026-05-08 22:34 | 66.75406 | 13.59168 | 3967 ft | 129 kts | 209° |
| 2026-05-08 22:34 | 66.74629 | 13.58027 | 3967 ft | 129 kts | 210° |
| 2026-05-08 22:35 | 66.73852 | 13.56887 | 3964 ft | 130 kts | 210° |
| 2026-05-08 22:35 | 66.73073 | 13.55743 | 3968 ft | 129 kts | 210° |
| 2026-05-08 22:35 | 66.72294 | 13.54601 | 3968 ft | 129 kts | 210° |
| 2026-05-08 22:35 | 66.71518 | 13.53462 | 3967 ft | 129 kts | 210° |
| 2026-05-08 22:36 | 66.70740 | 13.52321 | 3966 ft | 129 kts | 210° |
| 2026-05-08 22:36 | 66.69966 | 13.51184 | 3969 ft | 126 kts | 210° |
| 2026-05-08 22:36 | 66.69218 | 13.50089 | 3969 ft | 126 kts | 210° |
| 2026-05-08 22:36 | 66.68433 | 13.48946 | 3968 ft | 130 kts | 210° |
| 2026-05-08 22:37 | 66.67660 | 13.47822 | 3969 ft | 130 kts | 209° |
| 2026-05-08 22:37 | 66.66883 | 13.46692 | 3965 ft | 129 kts | 210° |
| 2026-05-08 22:37 | 66.66102 | 13.45552 | 3964 ft | 130 kts | 209° |
| 2026-05-08 22:37 | 66.65333 | 13.44425 | 3966 ft | 124 kts | 209° |
| 2026-05-08 22:38 | 66.64581 | 13.43333 | 3970 ft | 126 kts | 209° |
| 2026-05-08 22:38 | 66.63804 | 13.42209 | 3967 ft | 130 kts | 209° |
| 2026-05-08 22:38 | 66.63027 | 13.41085 | 3967 ft | 128 kts | 210° |
| 2026-05-08 22:38 | 66.62248 | 13.39955 | 3965 ft | 130 kts | 209° |
| 2026-05-08 22:39 | 66.61463 | 13.38822 | 3966 ft | 130 kts | 209° |
| 2026-05-08 22:39 | 66.60684 | 13.37699 | 3968 ft | 129 kts | 210° |
| 2026-05-08 22:39 | 66.59907 | 13.36568 | 3963 ft | 130 kts | 210° |
| 2026-05-08 22:39 | 66.59122 | 13.35427 | 3959 ft | 131 kts | 209° |
| 2026-05-08 22:40 | 66.58336 | 13.34289 | 3961 ft | 131 kts | 210° |
| 2026-05-08 22:40 | 66.57552 | 13.33155 | 3967 ft | 130 kts | 210° |
| 2026-05-08 22:40 | 66.56767 | 13.32027 | 3966 ft | 130 kts | 210° |
| 2026-05-08 22:40 | 66.55985 | 13.30896 | 3968 ft | 129 kts | 210° |
| 2026-05-08 22:41 | 66.55205 | 13.29778 | 3962 ft | 129 kts | 210° |
| 2026-05-08 22:41 | 66.54426 | 13.28654 | 3961 ft | 129 kts | 210° |
| 2026-05-08 22:41 | 66.53648 | 13.27532 | 3960 ft | 129 kts | 210° |
| 2026-05-08 22:41 | 66.52868 | 13.26407 | 3959 ft | 129 kts | 211° |
| 2026-05-08 22:42 | 66.52089 | 13.25288 | 3963 ft | 129 kts | 210° |
| 2026-05-08 22:42 | 66.51359 | 13.24259 | 3987 ft | 106 kts | 210° |
| 2026-05-08 22:42 | 66.50715 | 13.23348 | 3953 ft | 112 kts | 211° |
| 2026-05-08 22:42 | 66.50008 | 13.22316 | 3961 ft | 121 kts | 210° |
| 2026-05-08 22:43 | 66.49278 | 13.21267 | 3963 ft | 121 kts | 210° |
| 2026-05-08 22:43 | 66.48550 | 13.20221 | 3956 ft | 120 kts | 212° |
| 2026-05-08 22:43 | 66.47834 | 13.19181 | 3979 ft | 118 kts | 210° |
| 2026-05-08 22:43 | 66.47112 | 13.18154 | 3972 ft | 121 kts | 210° |
| 2026-05-08 22:44 | 66.46391 | 13.17131 | 3968 ft | 120 kts | 210° |
| 2026-05-08 22:44 | 66.45665 | 13.16097 | 3963 ft | 119 kts | 211° |
| 2026-05-08 22:44 | 66.44948 | 13.15073 | 3963 ft | 118 kts | 211° |
| 2026-05-08 22:44 | 66.44222 | 13.14037 | 3963 ft | 121 kts | 210° |
| 2026-05-08 22:45 | 66.43492 | 13.13001 | 3960 ft | 120 kts | 211° |
| 2026-05-08 22:45 | 66.42765 | 13.11967 | 3961 ft | 121 kts | 211° |
| 2026-05-08 22:45 | 66.42035 | 13.10925 | 3958 ft | 121 kts | 211° |
| 2026-05-08 22:45 | 66.41299 | 13.09881 | 3965 ft | 121 kts | 210° |
| 2026-05-08 22:46 | 66.40560 | 13.08837 | 3967 ft | 121 kts | 210° |
| 2026-05-08 22:46 | 66.39827 | 13.07797 | 3964 ft | 122 kts | 211° |
| 2026-05-08 22:46 | 66.39096 | 13.06761 | 3963 ft | 120 kts | 211° |
| 2026-05-08 22:46 | 66.38370 | 13.05731 | 3959 ft | 120 kts | 211° |
| 2026-05-08 22:47 | 66.37640 | 13.04692 | 3963 ft | 121 kts | 210° |
| 2026-05-08 22:47 | 66.36911 | 13.03659 | 3965 ft | 120 kts | 211° |
| 2026-05-08 22:47 | 66.36182 | 13.02625 | 3964 ft | 121 kts | 210° |
| 2026-05-08 22:47 | 66.35451 | 13.01586 | 3963 ft | 121 kts | 211° |
| 2026-05-08 22:48 | 66.34721 | 13.00558 | 3964 ft | 120 kts | 211° |
| 2026-05-08 22:48 | 66.33995 | 12.99536 | 3960 ft | 120 kts | 211° |
| 2026-05-08 22:48 | 66.33596 | 12.98971 | 3963 ft | 121 kts | 211° |
| 2026-05-08 22:48 | 66.32867 | 12.97938 | 3961 ft | 121 kts | 211° |
| 2026-05-08 22:49 | 66.32136 | 12.96906 | 3960 ft | 121 kts | 211° |
| 2026-05-08 22:49 | 66.30674 | 12.94842 | 3964 ft | 120 kts | 211° |
| 2026-05-08 22:49 | 66.29945 | 12.93815 | 3959 ft | 121 kts | 211° |
| 2026-05-08 22:50 | 66.29216 | 12.92789 | 3962 ft | 120 kts | 211° |
| 2026-05-08 22:50 | 66.28489 | 12.91767 | 3965 ft | 120 kts | 211° |
| 2026-05-08 22:50 | 66.27758 | 12.90738 | 3963 ft | 121 kts | 211° |
| 2026-05-08 22:50 | 66.27029 | 12.89714 | 3964 ft | 120 kts | 211° |
| 2026-05-08 22:51 | 66.26303 | 12.88694 | 3960 ft | 120 kts | 211° |
| 2026-05-08 22:51 | 66.25572 | 12.87664 | 3958 ft | 121 kts | 211° |
| 2026-05-08 22:51 | 66.24839 | 12.86631 | 3964 ft | 120 kts | 211° |
| 2026-05-08 22:51 | 66.24112 | 12.85623 | 3965 ft | 119 kts | 211° |
| 2026-05-08 22:52 | 66.23384 | 12.84604 | 3961 ft | 121 kts | 211° |
| 2026-05-08 22:52 | 66.22663 | 12.83596 | 3965 ft | 120 kts | 211° |
| 2026-05-08 22:52 | 66.21936 | 12.82583 | 3962 ft | 120 kts | 211° |
| 2026-05-08 22:52 | 66.21210 | 12.81567 | 3965 ft | 120 kts | 211° |
| 2026-05-08 22:53 | 66.20478 | 12.80546 | 3970 ft | 120 kts | 211° |
| 2026-05-08 22:53 | 66.19751 | 12.79532 | 3965 ft | 120 kts | 211° |
| 2026-05-08 22:53 | 66.19022 | 12.78516 | 3965 ft | 121 kts | 211° |
| 2026-05-08 22:53 | 66.18291 | 12.77497 | 3968 ft | 120 kts | 211° |
| 2026-05-08 22:54 | 66.17564 | 12.76486 | 3968 ft | 120 kts | 211° |
| 2026-05-08 22:54 | 66.16834 | 12.75473 | 3967 ft | 120 kts | 211° |
| 2026-05-08 22:54 | 66.16106 | 12.74461 | 3963 ft | 120 kts | 212° |
| 2026-05-08 22:54 | 66.15628 | 12.73797 | 3965 ft | 120 kts | 211° |
| 2026-05-08 22:55 | 66.14936 | 12.72836 | 3966 ft | 121 kts | 211° |
| 2026-05-08 22:55 | 66.14202 | 12.71817 | 3968 ft | 121 kts | 211° |
| 2026-05-08 22:55 | 66.13468 | 12.70798 | 3966 ft | 121 kts | 211° |
| 2026-05-08 22:55 | 66.12736 | 12.69781 | 3967 ft | 121 kts | 211° |
| 2026-05-08 22:56 | 66.12003 | 12.68766 | 3969 ft | 121 kts | 211° |
| 2026-05-08 22:56 | 66.11251 | 12.67715 | 3967 ft | 128 kts | 211° |
| 2026-05-08 22:56 | 66.10468 | 12.66621 | 3970 ft | 130 kts | 211° |
| 2026-05-08 22:56 | 66.09683 | 12.65535 | 3967 ft | 129 kts | 211° |
| 2026-05-08 22:57 | 66.08897 | 12.64446 | 3969 ft | 130 kts | 211° |
| 2026-05-08 22:57 | 66.08112 | 12.63365 | 3970 ft | 129 kts | 211° |
| 2026-05-08 22:57 | 66.07328 | 12.62285 | 3971 ft | 130 kts | 211° |
| 2026-05-08 22:57 | 66.06541 | 12.61202 | 3973 ft | 129 kts | 211° |
| 2026-05-08 22:58 | 66.05759 | 12.60128 | 3975 ft | 129 kts | 211° |
| 2026-05-08 22:58 | 66.04977 | 12.59052 | 3969 ft | 129 kts | 211° |
| 2026-05-08 22:58 | 66.04192 | 12.57971 | 3973 ft | 130 kts | 211° |
| 2026-05-08 22:58 | 66.03404 | 12.56889 | 3973 ft | 129 kts | 211° |
| 2026-05-08 22:59 | 66.02621 | 12.55815 | 3974 ft | 129 kts | 211° |
| 2026-05-08 22:59 | 66.01836 | 12.54736 | 3970 ft | 129 kts | 211° |
| 2026-05-08 22:59 | 66.01062 | 12.53674 | 3969 ft | 131 kts | 212° |
| 2026-05-08 22:59 | 66.00264 | 12.52575 | 3971 ft | 132 kts | 211° |
| 2026-05-08 23:00 | 65.99461 | 12.51474 | 3977 ft | 132 kts | 211° |
| 2026-05-08 23:00 | 65.98657 | 12.50372 | 3978 ft | 132 kts | 212° |
| 2026-05-08 23:00 | 65.97857 | 12.49277 | 3959 ft | 132 kts | 211° |
| 2026-05-08 23:00 | 65.97056 | 12.48181 | 3967 ft | 131 kts | 211° |
| 2026-05-08 23:01 | 65.96241 | 12.47149 | 3963 ft | 132 kts | 207° |
| 2026-05-08 23:01 | 65.95391 | 12.46246 | 3968 ft | 133 kts | 205° |
| 2026-05-08 23:01 | 65.94533 | 12.45374 | 3972 ft | 134 kts | 205° |
| 2026-05-08 23:01 | 65.93673 | 12.44513 | 3970 ft | 133 kts | 205° |
| 2026-05-08 23:02 | 65.92816 | 12.43662 | 3973 ft | 132 kts | 205° |
| 2026-05-08 23:02 | 65.91962 | 12.42817 | 3973 ft | 133 kts | 205° |
| 2026-05-08 23:02 | 65.91106 | 12.41973 | 3973 ft | 133 kts | 205° |
| 2026-05-08 23:02 | 65.90247 | 12.41126 | 3974 ft | 133 kts | 205° |
| 2026-05-08 23:03 | 65.89385 | 12.40281 | 3971 ft | 133 kts | 205° |
| 2026-05-08 23:03 | 65.88537 | 12.39451 | 3969 ft | 133 kts | 205° |
| 2026-05-08 23:03 | 65.87668 | 12.38600 | 3972 ft | 133 kts | 205° |
| 2026-05-08 23:03 | 65.86809 | 12.37759 | 3974 ft | 133 kts | 205° |
| 2026-05-08 23:04 | 65.85957 | 12.36924 | 3976 ft | 134 kts | 204° |
| 2026-05-08 23:04 | 65.85080 | 12.36068 | 3977 ft | 134 kts | 205° |
| 2026-05-08 23:04 | 65.84226 | 12.35234 | 3976 ft | 134 kts | 205° |
| 2026-05-08 23:04 | 65.83360 | 12.34391 | 3976 ft | 134 kts | 204° |
| 2026-05-08 23:05 | 65.82492 | 12.33546 | 3975 ft | 135 kts | 204° |
| 2026-05-08 23:05 | 65.81616 | 12.32695 | 3973 ft | 136 kts | 204° |
| 2026-05-08 23:05 | 65.80737 | 12.31844 | 3976 ft | 135 kts | 205° |
| 2026-05-08 23:05 | 65.79863 | 12.30995 | 3975 ft | 135 kts | 205° |
| 2026-05-08 23:06 | 65.78996 | 12.30153 | 3978 ft | 134 kts | 205° |
| 2026-05-08 23:06 | 65.78131 | 12.29314 | 3977 ft | 134 kts | 205° |
| 2026-05-08 23:06 | 65.77267 | 12.28475 | 3979 ft | 133 kts | 204° |
| 2026-05-08 23:06 | 65.76406 | 12.27641 | 3974 ft | 133 kts | 204° |
| 2026-05-08 23:07 | 65.75542 | 12.26803 | 3977 ft | 134 kts | 205° |
| 2026-05-08 23:07 | 65.74675 | 12.25964 | 3976 ft | 134 kts | 204° |
| 2026-05-08 23:07 | 65.73809 | 12.25128 | 3980 ft | 134 kts | 204° |
| 2026-05-08 23:07 | 65.72940 | 12.24289 | 3982 ft | 134 kts | 204° |
| 2026-05-08 23:08 | 65.72073 | 12.23453 | 3961 ft | 134 kts | 204° |
| 2026-05-08 23:08 | 65.71197 | 12.22613 | 3873 ft | 136 kts | 204° |
| 2026-05-08 23:08 | 65.70320 | 12.21781 | 3741 ft | 135 kts | 204° |
| 2026-05-08 23:08 | 65.69451 | 12.20969 | 3445 ft | 132 kts | 203° |
| 2026-05-08 23:09 | 65.68622 | 12.20209 | 3189 ft | 118 kts | 203° |
| 2026-05-08 23:09 | 65.67926 | 12.19571 | 3048 ft | 108 kts | 205° |
| 2026-05-08 23:09 | 65.67210 | 12.18872 | 3014 ft | 111 kts | 204° |
| 2026-05-08 23:09 | 65.66501 | 12.18202 | 2704 ft | 107 kts | 202° |
| 2026-05-08 23:10 | 65.65808 | 12.17559 | 2318 ft | 107 kts | 202° |
| 2026-05-08 23:10 | 65.65115 | 12.16901 | 2116 ft | 108 kts | 203° |
| 2026-05-08 23:10 | 65.64415 | 12.16223 | 2033 ft | 109 kts | 202° |
| 2026-05-08 23:10 | 65.63717 | 12.15578 | 1790 ft | 106 kts | 197° |
| 2026-05-08 23:11 | 65.62943 | 12.15526 | 1594 ft | 118 kts | 177° |
| 2026-05-08 23:11 | 65.62095 | 12.15771 | 1525 ft | 127 kts | 174° |
| 2026-05-08 23:11 | 65.61211 | 12.16071 | 1430 ft | 127 kts | 172° |
| 2026-05-08 23:11 | 65.60347 | 12.16397 | 1174 ft | 125 kts | 173° |
| 2026-05-08 23:12 | 65.59470 | 12.16713 | 1069 ft | 129 kts | 173° |
| 2026-05-08 23:12 | 65.58577 | 12.17032 | 1030 ft | 129 kts | 173° |
| 2026-05-08 23:12 | 65.57697 | 12.17346 | 1014 ft | 127 kts | 173° |
| 2026-05-08 23:12 | 65.56819 | 12.17659 | 1005 ft | 129 kts | 173° |
| 2026-05-08 23:13 | 65.55931 | 12.17978 | 1002 ft | 129 kts | 172° |
| 2026-05-08 23:13 | 65.55044 | 12.18303 | 995 ft | 129 kts | 172° |
| 2026-05-08 23:13 | 65.54156 | 12.18627 | 1001 ft | 130 kts | 172° |
| 2026-05-08 23:13 | 65.53263 | 12.18957 | 1000 ft | 129 kts | 171° |
| 2026-05-08 23:14 | 65.52376 | 12.19289 | 997 ft | 130 kts | 172° |
| 2026-05-08 23:14 | 65.51479 | 12.19623 | 999 ft | 130 kts | 172° |
| 2026-05-08 23:14 | 65.50599 | 12.19952 | 997 ft | 130 kts | 172° |
| 2026-05-08 23:14 | 65.49705 | 12.20283 | 998 ft | 130 kts | 172° |
| 2026-05-08 23:15 | 65.48822 | 12.20616 | 1020 ft | 120 kts | 172° |
| 2026-05-08 23:15 | 65.48141 | 12.20906 | 1021 ft | 80 kts | 173° |
| 2026-05-08 23:15 | 65.47691 | 12.21099 | 1007 ft | 53 kts | 175° |
| 2026-05-08 23:15 | 65.47366 | 12.21216 | 1063 ft | 45 kts | 178° |
| 2026-05-08 23:16 | 65.47061 | 12.21325 | 874 ft | 44 kts | 170° |
| 2026-05-08 23:16 | 65.46779 | 12.21522 | 640 ft | 39 kts | 163° |
| 2026-05-08 23:16 | 65.46560 | 12.21705 | 402 ft | 28 kts | 168° |
| 2026-05-08 23:16 | 65.46397 | 12.21774 | 245 ft | 20 kts | 174° |
| 2026-05-08 23:17 | 65.46274 | 12.21710 | 170 ft | 16 kts | 178° |
| 2026-05-08 23:17 | 65.46170 | 12.21652 | 108 ft | 14 kts | 177° |
| 2026-05-08 23:17 | 65.46108 | 12.21633 | 83 ft | 13 kts | 201° |
| 2026-05-08 23:17 | 65.46008 | 12.21557 | 60 ft | 14 kts | 219° |
| 2026-05-08 23:18 | 65.45965 | 12.21473 | 29 ft | 1 kts | 223° |
| 2026-05-08 23:18 | 65.45966 | 12.21470 | 27 ft | 1 kts | 223° |
| 2026-05-08 23:18 | 65.45964 | 12.21472 | 25 ft | 0 kts | 224° |